Terminal Aerodrome Forecast
Issued by NWS

Home | Current Version | Previous Version | Text Only | Print | Product List | Glossary On
Versions: 1 2 3 4 5 6 7 8 9 10 11 12 13 14 15 16
000
FTUS42 TJSJ 010540
TAFJBQ
TAF
TJBQ 010540Z 0106/0206 11003KT P6SM -RA SCT025 BKN050 BKN100
     FM011000 10006KT P6SM VCSH SCT025 BKN060
     FM011400 09011KT P6SM FEW022 SCT040 SCT120
     FM011800 07014KT P6SM VCTS SCT025CB BKN040
     FM012300 10006KT P6SM SCT025 BKN060
      AMD NOT SKED TIL 011100=

USA.gov is the U.S. government's official web portal to all federal, state and local government web resources and services.